createdAt,value
2023-02-19T00:00:50.889Z,-3.04
2023-02-19T00:01:50.891Z,-2.99
2023-02-19T00:02:50.897Z,-3.00
2023-02-19T00:03:51.025Z,-3.07
2023-02-19T00:04:50.865Z,-3.05
2023-02-19T00:05:50.829Z,-3.08
2023-02-19T00:06:50.854Z,-3.11
2023-02-19T00:07:50.824Z,-3.15
2023-02-19T00:08:50.885Z,-3.22
2023-02-19T00:09:50.802Z,-3.20
2023-02-19T00:10:50.781Z,-3.17
2023-02-19T00:11:50.825Z,-3.20
2023-02-19T00:12:50.857Z,-3.23
2023-02-19T00:13:50.749Z,-3.26
2023-02-19T00:14:50.736Z,-3.29
2023-02-19T00:15:50.814Z,-3.25
2023-02-19T00:16:50.721Z,-3.20
2023-02-19T00:17:50.708Z,-3.18
2023-02-19T00:18:50.696Z,-3.22
2023-02-19T00:19:50.690Z,-3.23
2023-02-19T00:20:50.671Z,-3.25
2023-02-19T00:21:50.754Z,-3.22
2023-02-19T00:22:50.682Z,-3.20
2023-02-19T00:23:50.628Z,-3.22
2023-02-19T00:24:50.625Z,-3.20
2023-02-19T00:25:50.613Z,-3.14
2023-02-19T00:26:50.644Z,-3.05
2023-02-19T00:27:50.611Z,-3.05
2023-02-19T00:28:50.611Z,-3.02
2023-02-19T00:29:50.577Z,-3.00
2023-02-19T00:30:50.779Z,-2.97
2023-02-19T00:31:50.664Z,-2.93
2023-02-19T00:32:50.532Z,-2.93
2023-02-19T00:33:50.517Z,-2.94
2023-02-19T00:34:50.510Z,-2.87
2023-02-19T00:35:50.792Z,-2.92
2023-02-19T00:36:50.539Z,-2.93
2023-02-19T00:37:50.485Z,-2.96
2023-02-19T00:38:50.480Z,-2.97
2023-02-19T00:39:50.501Z,-2.99
2023-02-19T00:40:50.531Z,-2.99
2023-02-19T00:41:50.470Z,-2.97
2023-02-19T00:42:50.439Z,-3.00
2023-02-19T00:43:50.415Z,-2.96
2023-02-19T00:44:50.420Z,-2.94
2023-02-19T00:45:50.419Z,-2.96
2023-02-19T00:46:50.410Z,-2.94
2023-02-19T00:47:50.384Z,-2.97
2023-02-19T00:48:50.372Z,-3.02
2023-02-19T00:49:50.352Z,-3.05
2023-02-19T00:50:50.416Z,-2.99
2023-02-19T00:51:50.351Z,-2.94
2023-02-19T00:52:50.328Z,-2.93
2023-02-19T00:53:50.300Z,-2.96
2023-02-19T00:54:50.292Z,-2.97
2023-02-19T00:55:50.303Z,-2.97
2023-02-19T00:56:50.341Z,-2.97
2023-02-19T00:57:50.270Z,-2.93
2023-02-19T00:58:50.269Z,-2.94
2023-02-19T00:59:50.237Z,-2.96
2023-02-19T01:00:50.293Z,-3.02
2023-02-19T01:01:50.383Z,-3.05
2023-02-19T01:02:50.204Z,-3.08
2023-02-19T01:03:50.249Z,-3.07
2023-02-19T01:04:50.284Z,-3.08
2023-02-19T01:05:50.176Z,-3.10
2023-02-19T01:06:50.189Z,-3.10
2023-02-19T01:07:50.160Z,-3.13
2023-02-19T01:08:50.171Z,-3.10
2023-02-19T01:09:50.243Z,-3.04
2023-02-19T01:10:50.130Z,-3.02
2023-02-19T01:11:50.152Z,-3.04
2023-02-19T01:12:50.106Z,-3.08
2023-02-19T01:13:50.094Z,-3.07
2023-02-19T01:14:50.099Z,-3.00
2023-02-19T01:15:50.122Z,-3.02
2023-02-19T01:16:50.082Z,-3.05
2023-02-19T01:17:50.058Z,-2.99
2023-02-19T01:18:50.043Z,-2.97
2023-02-19T01:19:50.036Z,-3.05
2023-02-19T01:20:50.078Z,-3.10
2023-02-19T01:21:49.996Z,-3.13
2023-02-19T01:22:50.793Z,-3.13
2023-02-19T01:23:50.793Z,-3.07
2023-02-19T01:24:49.971Z,-2.94
2023-02-19T01:25:49.978Z,-2.93
2023-02-19T01:26:49.963Z,-2.97
2023-02-19T01:27:49.930Z,-2.99
2023-02-19T01:28:49.991Z,-3.02
2023-02-19T01:29:49.929Z,-3.04
2023-02-19T01:30:49.914Z,-3.07
2023-02-19T01:31:50.057Z,-3.07
2023-02-19T01:32:49.879Z,-3.07
2023-02-19T01:33:49.905Z,-3.05
2023-02-19T01:34:49.898Z,-3.11
2023-02-19T01:35:49.978Z,-3.14
2023-02-19T01:36:49.861Z,-3.13
2023-02-19T01:37:49.833Z,-3.07
2023-02-19T01:38:49.847Z,-3.04
2023-02-19T01:39:49.812Z,-3.02
2023-02-19T01:40:49.804Z,-3.02
2023-02-19T01:41:50.058Z,-3.00
2023-02-19T01:42:49.768Z,-3.05
2023-02-19T01:43:49.786Z,-2.99
2023-02-19T01:44:49.777Z,-2.97
2023-02-19T01:45:49.750Z,-2.94
2023-02-19T01:46:49.779Z,-2.93
2023-02-19T01:47:49.724Z,-2.90
2023-02-19T01:48:49.721Z,-2.89
2023-02-19T01:49:49.990Z,-2.87
2023-02-19T01:50:49.678Z,-2.87
2023-02-19T01:51:50.790Z,-2.85
2023-02-19T01:52:49.683Z,-2.87
2023-02-19T01:53:49.662Z,-2.87
2023-02-19T01:54:49.649Z,-2.87
2023-02-19T01:55:49.672Z,-2.82
2023-02-19T01:56:49.623Z,-2.79
2023-02-19T01:57:49.624Z,-2.79
2023-02-19T01:58:49.612Z,-2.78
2023-02-19T01:59:49.600Z,-2.82
2023-02-19T02:00:49.653Z,-2.86
2023-02-19T02:01:49.693Z,-2.86
2023-02-19T02:02:49.577Z,-2.82
2023-02-19T02:03:49.544Z,-2.85
2023-02-19T02:04:49.575Z,-2.82
2023-02-19T02:05:49.526Z,-2.82
2023-02-19T02:06:49.582Z,-2.82
2023-02-19T02:07:49.498Z,-2.79
2023-02-19T02:08:49.505Z,-2.82
2023-02-19T02:09:49.497Z,-2.85
2023-02-19T02:10:49.485Z,-2.85
2023-02-19T02:11:50.199Z,-2.85
2023-02-19T02:12:50.395Z,-2.86
2023-02-19T02:13:49.465Z,-2.78
2023-02-19T02:14:50.201Z,-2.78
2023-02-19T02:15:49.458Z,-2.78
2023-02-19T02:16:49.408Z,-2.79
2023-02-19T02:17:50.316Z,-2.81
2023-02-19T02:18:49.393Z,-2.81
2023-02-19T02:19:49.386Z,-2.76
2023-02-19T02:20:49.376Z,-2.74
2023-02-19T02:21:49.397Z,-2.79
2023-02-19T02:22:49.350Z,-2.79
2023-02-19T02:23:49.362Z,-2.85
2023-02-19T02:24:49.406Z,-2.86
2023-02-19T02:25:49.326Z,-2.87
2023-02-19T02:26:49.318Z,-2.85
2023-02-19T02:27:49.345Z,-2.85
2023-02-19T02:28:49.288Z,-2.89
2023-02-19T02:29:49.273Z,-2.90
2023-02-19T02:30:49.281Z,-2.90
2023-02-19T02:31:49.324Z,-2.89
2023-02-19T02:32:49.820Z,-2.92
2023-02-19T02:33:49.240Z,-2.96
2023-02-19T02:34:49.248Z,-2.96
2023-02-19T02:35:49.223Z,-2.92
2023-02-19T02:36:49.210Z,-2.97
2023-02-19T02:37:49.196Z,-2.96
2023-02-19T02:38:49.195Z,-2.99
2023-02-19T02:39:49.200Z,-3.02
2023-02-19T02:40:49.177Z,-2.96
2023-02-19T02:41:49.146Z,-2.94
2023-02-19T02:42:49.133Z,-2.94
2023-02-19T02:43:49.137Z,-2.92
2023-02-19T02:44:49.144Z,-2.93
2023-02-19T02:45:49.184Z,-2.96
2023-02-19T02:46:49.098Z,-2.97
2023-02-19T02:47:49.082Z,-2.97
2023-02-19T02:48:49.086Z,-2.96
2023-02-19T02:49:49.072Z,-3.00
2023-02-19T02:50:49.074Z,-2.97
2023-02-19T02:51:49.037Z,-2.96
2023-02-19T02:52:49.045Z,-2.96
2023-02-19T02:53:49.057Z,-3.00
2023-02-19T02:54:49.029Z,-3.00
2023-02-19T02:55:49.126Z,-2.97
2023-02-19T02:56:48.990Z,-2.96
2023-02-19T02:57:48.980Z,-2.92
2023-02-19T02:58:48.968Z,-2.94
2023-02-19T02:59:48.964Z,-2.96
2023-02-19T03:00:48.990Z,-2.99
2023-02-19T03:01:48.999Z,-2.97
2023-02-19T03:02:48.909Z,-2.96
2023-02-19T03:03:48.916Z,-2.99
2023-02-19T03:04:48.901Z,-3.00
2023-02-19T03:05:48.895Z,-3.02
2023-02-19T03:06:48.890Z,-3.00
2023-02-19T03:07:48.904Z,-2.96
2023-02-19T03:08:48.865Z,-2.99
2023-02-19T03:09:49.723Z,-2.99
2023-02-19T03:10:48.843Z,-3.04
2023-02-19T03:11:48.821Z,-3.07
2023-02-19T03:12:48.865Z,-3.10
2023-02-19T03:13:48.795Z,-3.11
2023-02-19T03:14:48.798Z,-3.08
2023-02-19T03:15:48.777Z,-3.02
2023-02-19T03:16:48.851Z,-3.00
2023-02-19T03:17:48.756Z,-2.97
2023-02-19T03:18:48.788Z,-3.04
2023-02-19T03:19:48.798Z,-2.97
2023-02-19T03:20:48.737Z,-2.96
2023-02-19T03:21:48.713Z,-2.97
2023-02-19T03:22:48.695Z,-2.99
2023-02-19T03:23:48.689Z,-2.94
2023-02-19T03:24:48.672Z,-2.96
2023-02-19T03:25:48.688Z,-3.00
2023-02-19T03:26:48.657Z,-3.02
2023-02-19T03:27:48.652Z,-3.02
2023-02-19T03:28:48.636Z,-3.05
2023-02-19T03:29:48.677Z,-3.08
2023-02-19T03:30:48.648Z,-3.13
2023-02-19T03:31:48.743Z,-3.14
2023-02-19T03:32:48.605Z,-3.14
2023-02-19T03:33:48.588Z,-3.14
2023-02-19T03:34:48.603Z,-3.15
2023-02-19T03:35:48.552Z,-3.11
2023-02-19T03:36:48.544Z,-3.14
2023-02-19T03:37:48.545Z,-3.17
2023-02-19T03:38:48.533Z,-3.13
2023-02-19T03:39:48.546Z,-3.02
2023-02-19T03:40:48.498Z,-2.99
2023-02-19T03:41:48.511Z,-2.96
2023-02-19T03:42:48.481Z,-3.02
2023-02-19T03:43:48.476Z,-2.97
2023-02-19T03:44:48.495Z,-2.96
2023-02-19T03:45:48.476Z,-2.99
2023-02-19T03:46:48.459Z,-2.96
2023-02-19T03:47:48.424Z,-2.97
2023-02-19T03:48:48.416Z,-3.02
2023-02-19T03:49:49.174Z,-3.02
2023-02-19T03:50:48.433Z,-3.07
2023-02-19T03:51:48.385Z,-3.05
2023-02-19T03:52:48.390Z,-3.04
2023-02-19T03:53:48.365Z,-3.02
2023-02-19T03:54:48.372Z,-3.05
2023-02-19T03:55:48.337Z,-3.05
2023-02-19T03:56:48.367Z,-3.05
2023-02-19T03:57:48.318Z,-3.07
2023-02-19T03:58:48.320Z,-3.05
2023-02-19T03:59:48.299Z,-3.05
2023-02-19T04:00:48.288Z,-3.05
2023-02-19T04:01:48.295Z,-3.08
2023-02-19T04:02:48.267Z,-3.11
2023-02-19T04:03:48.258Z,-3.10
2023-02-19T04:04:48.268Z,-3.11
2023-02-19T04:05:48.237Z,-3.10
2023-02-19T04:06:48.255Z,-3.15
2023-02-19T04:07:48.223Z,-3.17
2023-02-19T04:08:48.205Z,-3.17
2023-02-19T04:09:48.205Z,-3.14
2023-02-19T04:10:48.218Z,-3.13
2023-02-19T04:11:48.165Z,-3.18
2023-02-19T04:12:48.173Z,-3.13
2023-02-19T04:13:48.156Z,-3.10
2023-02-19T04:14:48.153Z,-3.10
2023-02-19T04:15:48.162Z,-3.07
2023-02-19T04:16:48.156Z,-3.08
2023-02-19T04:17:48.121Z,-3.11
2023-02-19T04:18:48.111Z,-3.11
2023-02-19T04:19:48.092Z,-3.07
2023-02-19T04:20:48.108Z,-3.07
2023-02-19T04:21:48.077Z,-3.08
2023-02-19T04:22:48.064Z,-3.10
2023-02-19T04:23:48.062Z,-3.11
2023-02-19T04:24:48.049Z,-3.05
2023-02-19T04:25:48.054Z,-3.05
2023-02-19T04:26:48.022Z,-3.10
2023-02-19T04:27:48.008Z,-3.13
2023-02-19T04:28:48.001Z,-3.17
2023-02-19T04:29:47.995Z,-3.18
2023-02-19T04:30:48.009Z,-3.18
2023-02-19T04:31:47.997Z,-3.14
2023-02-19T04:32:47.949Z,-3.15
2023-02-19T04:33:47.937Z,-3.13
2023-02-19T04:34:47.938Z,-3.10
2023-02-19T04:35:47.920Z,-3.02
2023-02-19T04:36:47.897Z,-3.04
2023-02-19T04:37:47.914Z,-3.05
2023-02-19T04:38:47.900Z,-3.10
2023-02-19T04:39:47.884Z,-3.11
2023-02-19T04:40:47.885Z,-3.13
2023-02-19T04:41:47.838Z,-3.13
2023-02-19T04:42:47.927Z,-3.15
2023-02-19T04:43:47.840Z,-3.17
2023-02-19T04:44:47.808Z,-3.18
2023-02-19T04:45:47.832Z,-3.18
2023-02-19T04:46:47.794Z,-3.23
2023-02-19T04:47:47.809Z,-3.25
2023-02-19T04:48:47.773Z,-3.23
2023-02-19T04:49:47.772Z,-3.20
2023-02-19T04:50:47.783Z,-3.18
2023-02-19T04:51:47.750Z,-3.14
2023-02-19T04:52:47.715Z,-3.18
2023-02-19T04:53:47.713Z,-3.18
2023-02-19T04:54:47.721Z,-3.23
2023-02-19T04:55:47.721Z,-3.28
2023-02-19T04:56:47.689Z,-3.26
2023-02-19T04:57:47.682Z,-3.20
2023-02-19T04:58:47.660Z,-3.20
2023-02-19T04:59:47.663Z,-3.17
2023-02-19T05:00:47.669Z,-3.17
2023-02-19T05:01:47.753Z,-3.18
2023-02-19T05:02:47.614Z,-3.18
2023-02-19T05:03:47.622Z,-3.23
2023-02-19T05:04:47.587Z,-3.26
2023-02-19T05:05:47.942Z,-3.26
2023-02-19T05:06:47.574Z,-3.20
2023-02-19T05:07:47.609Z,-3.14
2023-02-19T05:08:47.563Z,-3.11
2023-02-19T05:09:47.586Z,-3.08
2023-02-19T05:10:47.622Z,-3.10
2023-02-19T05:11:47.520Z,-3.11
2023-02-19T05:12:47.519Z,-3.10
2023-02-19T05:13:47.567Z,-3.14
2023-02-19T05:14:47.487Z,-3.15
2023-02-19T05:15:47.576Z,-3.14
2023-02-19T05:16:47.490Z,-3.17
2023-02-19T05:17:47.472Z,-3.15
2023-02-19T05:18:47.455Z,-3.15
2023-02-19T05:19:47.448Z,-3.15
2023-02-19T05:20:47.431Z,-3.17
2023-02-19T05:21:47.453Z,-3.23
2023-02-19T05:22:47.425Z,-3.25
2023-02-19T05:23:47.391Z,-3.28
2023-02-19T05:24:47.381Z,-3.26
2023-02-19T05:25:47.372Z,-3.26
2023-02-19T05:26:47.356Z,-3.28
2023-02-19T05:27:47.377Z,-3.25
2023-02-19T05:28:47.329Z,-3.25
2023-02-19T05:29:47.325Z,-3.29
2023-02-19T05:30:47.376Z,-3.31
2023-02-19T05:31:47.483Z,-3.32
2023-02-19T05:32:47.316Z,-3.35
2023-02-19T05:33:47.387Z,-3.32
2023-02-19T05:34:47.272Z,-3.33
2023-02-19T05:35:47.269Z,-3.33
2023-02-19T05:36:47.274Z,-3.29
2023-02-19T05:37:47.238Z,-3.33
2023-02-19T05:38:47.251Z,-3.39
2023-02-19T05:39:47.225Z,-3.43
2023-02-19T05:40:47.224Z,-3.47
2023-02-19T05:41:47.209Z,-3.51
2023-02-19T05:42:47.220Z,-3.54
2023-02-19T05:43:47.186Z,-3.56
2023-02-19T05:44:47.171Z,-3.60
2023-02-19T05:45:47.152Z,-3.64
2023-02-19T05:46:47.156Z,-3.60
2023-02-19T05:47:47.155Z,-3.62
2023-02-19T05:48:47.147Z,-3.65
2023-02-19T05:49:47.114Z,-3.67
2023-02-19T05:50:47.132Z,-3.62
2023-02-19T05:51:47.095Z,-3.61
2023-02-19T05:52:47.096Z,-3.62
2023-02-19T05:53:47.140Z,-3.60
2023-02-19T05:54:47.075Z,-3.60
2023-02-19T05:55:47.064Z,-3.60
2023-02-19T05:56:47.043Z,-3.62
2023-02-19T05:57:47.024Z,-3.62
2023-02-19T05:58:47.010Z,-3.70
2023-02-19T05:59:47.037Z,-3.68
2023-02-19T06:00:46.999Z,-3.62
2023-02-19T06:01:46.989Z,-3.51
2023-02-19T06:02:46.991Z,-3.56
2023-02-19T06:03:47.021Z,-3.53
2023-02-19T06:04:46.995Z,-3.53
2023-02-19T06:05:46.942Z,-3.56
2023-02-19T06:06:46.936Z,-3.46
2023-02-19T06:07:46.913Z,-3.43
2023-02-19T06:08:46.929Z,-3.38
2023-02-19T06:09:46.914Z,-3.35
2023-02-19T06:10:46.907Z,-3.38
2023-02-19T06:11:46.886Z,-3.36
2023-02-19T06:12:46.867Z,-3.39
2023-02-19T06:13:46.865Z,-3.43
2023-02-19T06:14:46.871Z,-3.46
2023-02-19T06:15:46.854Z,-3.46
2023-02-19T06:16:46.865Z,-3.49
2023-02-19T06:17:46.827Z,-3.50
2023-02-19T06:18:46.916Z,-3.49
2023-02-19T06:19:46.801Z,-3.50
2023-02-19T06:20:46.788Z,-3.54
2023-02-19T06:21:46.797Z,-3.56
2023-02-19T06:22:46.757Z,-3.50
2023-02-19T06:23:46.759Z,-3.49
2023-02-19T06:24:46.727Z,-3.50
2023-02-19T06:25:46.723Z,-3.49
2023-02-19T06:26:46.734Z,-3.49
2023-02-19T06:27:46.702Z,-3.51
2023-02-19T06:28:46.695Z,-3.54
2023-02-19T06:29:46.689Z,-3.54
2023-02-19T06:30:46.675Z,-3.56
2023-02-19T06:31:46.764Z,-3.57
2023-02-19T06:32:46.687Z,-3.60
2023-02-19T06:33:46.663Z,-3.57
2023-02-19T06:34:47.365Z,-3.51
2023-02-19T06:35:46.620Z,-3.51
2023-02-19T06:36:46.632Z,-3.44
2023-02-19T06:37:46.601Z,-3.43
2023-02-19T06:38:46.631Z,-3.47
2023-02-19T06:39:46.577Z,-3.50
2023-02-19T06:40:46.577Z,-3.50
2023-02-19T06:41:46.591Z,-3.50
2023-02-19T06:42:46.554Z,-3.50
2023-02-19T06:43:46.685Z,-3.46
2023-02-19T06:44:46.553Z,-3.39
2023-02-19T06:45:46.529Z,-3.39
2023-02-19T06:46:46.611Z,-3.44
2023-02-19T06:47:46.527Z,-3.46
2023-02-19T06:48:46.493Z,-3.46
2023-02-19T06:49:46.500Z,-3.47
2023-02-19T06:50:46.464Z,-3.43
2023-02-19T06:51:46.488Z,-3.44
2023-02-19T06:52:46.463Z,-3.38
2023-02-19T06:53:46.461Z,-3.43
2023-02-19T06:54:46.414Z,-3.49
2023-02-19T06:55:46.416Z,-3.47
2023-02-19T06:56:47.216Z,-3.47
2023-02-19T06:57:46.389Z,-3.43
2023-02-19T06:58:46.401Z,-3.36
2023-02-19T06:59:46.451Z,-3.36
2023-02-19T07:00:46.413Z,-3.38
2023-02-19T07:01:46.424Z,-3.41
2023-02-19T07:02:46.339Z,-3.41
2023-02-19T07:03:46.339Z,-3.33
2023-02-19T07:04:46.318Z,-3.33
2023-02-19T07:05:46.372Z,-3.35
2023-02-19T07:06:46.299Z,-3.33
2023-02-19T07:07:46.305Z,-3.32
2023-02-19T07:08:46.279Z,-3.35
2023-02-19T07:09:46.262Z,-3.39
2023-02-19T07:10:46.264Z,-3.39
2023-02-19T07:11:46.283Z,-3.41
2023-02-19T07:12:46.244Z,-3.44
2023-02-19T07:13:46.217Z,-3.49
2023-02-19T07:14:46.205Z,-3.51
2023-02-19T07:15:46.195Z,-3.54
2023-02-19T07:16:46.207Z,-3.53
2023-02-19T07:17:46.165Z,-3.51
2023-02-19T07:18:46.200Z,-3.50
2023-02-19T07:19:46.199Z,-3.49
2023-02-19T07:20:46.154Z,-3.47
2023-02-19T07:21:46.407Z,-3.44
2023-02-19T07:22:46.309Z,-3.43
2023-02-19T07:23:46.143Z,-3.41
2023-02-19T07:24:47.884Z,-3.41
2023-02-19T07:25:46.150Z,-3.39
2023-02-19T07:26:46.078Z,-3.32
2023-02-19T07:27:46.062Z,-3.25
2023-02-19T07:28:46.042Z,-3.25
2023-02-19T07:29:46.082Z,-3.25
2023-02-19T07:30:46.895Z,-3.20
2023-02-19T07:31:46.069Z,-3.18
2023-02-19T07:32:46.003Z,-3.17
2023-02-19T07:33:45.997Z,-3.17
2023-02-19T07:34:45.983Z,-3.15
2023-02-19T07:35:45.975Z,-3.13
2023-02-19T07:36:45.978Z,-3.11
2023-02-19T07:37:45.950Z,-3.14
2023-02-19T07:38:46.623Z,-3.17
2023-02-19T07:39:45.926Z,-3.20
2023-02-19T07:40:45.937Z,-3.14
2023-02-19T07:41:45.920Z,-3.10
2023-02-19T07:42:45.910Z,-3.07
2023-02-19T07:43:45.906Z,-3.04
2023-02-19T07:44:45.916Z,-3.00
2023-02-19T07:45:45.922Z,-3.00
2023-02-19T07:46:45.862Z,-2.93
2023-02-19T07:47:45.847Z,-2.92
2023-02-19T07:48:45.877Z,-2.90
2023-02-19T07:49:45.823Z,-2.92
2023-02-19T07:50:45.835Z,-2.87
2023-02-19T07:51:45.824Z,-2.86
2023-02-19T07:52:45.807Z,-2.81
2023-02-19T07:53:45.779Z,-2.74
2023-02-19T07:54:45.771Z,-2.71
2023-02-19T07:55:45.763Z,-2.66
2023-02-19T07:56:45.776Z,-2.72
2023-02-19T07:57:45.736Z,-2.68
2023-02-19T07:58:45.747Z,-2.68
2023-02-19T07:59:45.779Z,-2.64
2023-02-19T08:00:45.793Z,-2.68
2023-02-19T08:01:45.732Z,-2.68
2023-02-19T08:02:45.683Z,-2.64
2023-02-19T08:03:45.681Z,-2.66
2023-02-19T08:04:45.696Z,-2.63
2023-02-19T08:05:45.672Z,-2.63
2023-02-19T08:06:45.650Z,-2.63
2023-02-19T08:07:45.649Z,-2.58
2023-02-19T08:08:45.629Z,-2.56
2023-02-19T08:09:45.640Z,-2.50
2023-02-19T08:10:45.593Z,-2.51
2023-02-19T08:11:45.608Z,-2.51
2023-02-19T08:12:45.583Z,-2.53
2023-02-19T08:13:46.663Z,-2.50
2023-02-19T08:14:45.559Z,-2.48
2023-02-19T08:15:45.563Z,-2.48
2023-02-19T08:16:45.549Z,-2.51
2023-02-19T08:17:45.705Z,-2.51
2023-02-19T08:18:45.568Z,-2.50
2023-02-19T08:19:45.520Z,-2.48
2023-02-19T08:20:45.492Z,-2.47
2023-02-19T08:21:45.546Z,-2.47
2023-02-19T08:22:45.587Z,-2.48
2023-02-19T08:23:45.466Z,-2.48
2023-02-19T08:24:45.616Z,-2.43
2023-02-19T08:25:45.453Z,-2.40
2023-02-19T08:26:45.430Z,-2.39
2023-02-19T08:27:46.787Z,-2.38
2023-02-19T08:28:45.412Z,-2.36
2023-02-19T08:29:45.406Z,-2.36
2023-02-19T08:30:45.583Z,-2.36
2023-02-19T08:31:45.607Z,-2.33
2023-02-19T08:32:45.365Z,-2.33
2023-02-19T08:33:45.363Z,-2.35
2023-02-19T08:34:45.363Z,-2.33
2023-02-19T08:35:45.335Z,-2.35
2023-02-19T08:36:45.373Z,-2.28
2023-02-19T08:37:45.306Z,-2.29
2023-02-19T08:38:45.986Z,-2.29
2023-02-19T08:39:45.303Z,-2.32
2023-02-19T08:40:45.280Z,-2.28
2023-02-19T08:41:45.278Z,-2.29
2023-02-19T08:42:45.256Z,-2.26
2023-02-19T08:43:45.241Z,-2.29
2023-02-19T08:44:45.266Z,-2.26
2023-02-19T08:45:45.293Z,-2.20
2023-02-19T08:46:45.222Z,-2.18
2023-02-19T08:47:45.186Z,-2.16
2023-02-19T08:48:45.207Z,-2.13
2023-02-19T08:49:45.334Z,-2.10
2023-02-19T08:50:45.155Z,-2.03
2023-02-19T08:51:45.154Z,-2.06
2023-02-19T08:52:45.147Z,-2.02
2023-02-19T08:53:45.138Z,-2.03
2023-02-19T08:54:45.143Z,-2.03
2023-02-19T08:55:45.166Z,-2.00
2023-02-19T08:56:45.086Z,-2.02
2023-02-19T08:57:45.145Z,-2.05
2023-02-19T08:58:45.083Z,-1.99
2023-02-19T08:59:45.060Z,-1.99
2023-02-19T09:00:45.081Z,-1.96
2023-02-19T09:01:45.081Z,-1.95
2023-02-19T09:02:45.056Z,-1.96
2023-02-19T09:03:45.035Z,-1.95
2023-02-19T09:04:45.028Z,-1.96
2023-02-19T09:05:45.033Z,-1.95
2023-02-19T09:06:44.988Z,-1.93
2023-02-19T09:07:44.982Z,-1.93
2023-02-19T09:08:44.972Z,-1.93
2023-02-19T09:09:44.944Z,-1.92
2023-02-19T09:10:44.966Z,-1.93
2023-02-19T09:11:45.693Z,-1.95
2023-02-19T09:12:44.951Z,-1.93
2023-02-19T09:13:44.911Z,-1.92
2023-02-19T09:14:44.894Z,-1.90
2023-02-19T09:15:44.933Z,-1.88
2023-02-19T09:16:44.925Z,-1.88
2023-02-19T09:17:44.893Z,-1.90
2023-02-19T09:18:44.849Z,-1.90
2023-02-19T09:19:44.861Z,-1.87
2023-02-19T09:20:44.835Z,-1.84
2023-02-19T09:21:44.879Z,-1.81
2023-02-19T09:22:44.814Z,-1.80
2023-02-19T09:23:44.797Z,-1.78
2023-02-19T09:24:44.793Z,-1.77
2023-02-19T09:25:44.794Z,-1.70
2023-02-19T09:26:44.772Z,-1.72
2023-02-19T09:27:44.807Z,-1.74
2023-02-19T09:28:44.766Z,-1.70
2023-02-19T09:29:44.744Z,-1.72
2023-02-19T09:30:44.769Z,-1.70
2023-02-19T09:31:44.904Z,-1.66
2023-02-19T09:32:44.803Z,-1.63
2023-02-19T09:33:44.717Z,-1.63
2023-02-19T09:34:44.685Z,-1.59
2023-02-19T09:35:44.727Z,-1.57
2023-02-19T09:36:44.728Z,-1.59
2023-02-19T09:37:44.656Z,-1.57
2023-02-19T09:38:44.639Z,-1.54
2023-02-19T09:39:44.634Z,-1.51
2023-02-19T09:40:44.637Z,-1.54
2023-02-19T09:41:44.608Z,-1.54
2023-02-19T09:42:44.644Z,-1.49
2023-02-19T09:43:44.604Z,-1.42
2023-02-19T09:44:44.586Z,-1.42
2023-02-19T09:45:44.552Z,-1.41
2023-02-19T09:46:44.625Z,-1.28
2023-02-19T09:47:44.556Z,-1.23
2023-02-19T09:48:44.566Z,-1.03
2023-02-19T09:49:44.537Z,-0.92
2023-02-19T09:50:44.526Z,-0.97
2023-02-19T09:51:44.534Z,-1.00
2023-02-19T09:52:44.493Z,-1.06
2023-02-19T09:53:44.506Z,-1.02
2023-02-19T09:54:44.545Z,-1.06
2023-02-19T09:55:44.502Z,-1.03
2023-02-19T09:56:44.503Z,-1.13
2023-02-19T09:57:44.451Z,-1.15
2023-02-19T09:58:45.183Z,-1.20
2023-02-19T09:59:44.438Z,-1.23
2023-02-19T10:00:44.473Z,-1.12
2023-02-19T10:01:44.394Z,-1.07
2023-02-19T10:02:44.438Z,-1.13
2023-02-19T10:03:44.377Z,-1.20
2023-02-19T10:04:44.445Z,-1.18
2023-02-19T10:05:44.359Z,-1.13
2023-02-19T10:06:44.328Z,-1.13
2023-02-19T10:07:44.382Z,-1.13
2023-02-19T10:09:20.146Z,-1.12
2023-02-19T10:09:44.298Z,-1.13
2023-02-19T10:10:44.289Z,-1.12
2023-02-19T10:11:44.292Z,-1.06
2023-02-19T10:12:44.295Z,-0.99
2023-02-19T10:13:44.265Z,-1.07
2023-02-19T10:14:44.265Z,-1.12
2023-02-19T10:15:44.293Z,-1.06
2023-02-19T10:16:44.246Z,-1.02
2023-02-19T10:17:44.298Z,-1.06
2023-02-19T10:18:44.259Z,-1.09
2023-02-19T10:19:44.199Z,-1.06
2023-02-19T10:20:44.171Z,-1.05
2023-02-19T10:21:44.202Z,-1.05
2023-02-19T10:22:44.209Z,-1.06
2023-02-19T10:24:58.923Z,-1.13
2023-02-19T10:25:59.900Z,-1.13
2023-02-19T10:26:59.870Z,-1.21
2023-02-19T10:27:59.858Z,-1.20
2023-02-19T10:28:59.882Z,-1.23
2023-02-19T10:29:59.944Z,-1.27
2023-02-19T10:30:59.869Z,-1.24
2023-02-19T10:32:00.060Z,-1.23
2023-02-19T10:32:59.823Z,-1.18
2023-02-19T10:33:59.823Z,-1.15
2023-02-19T10:34:59.791Z,-1.18
2023-02-19T10:35:59.785Z,-1.20
2023-02-19T10:36:59.776Z,-1.18
2023-02-19T10:37:59.768Z,-1.17
2023-02-19T10:38:59.787Z,-1.20
2023-02-19T10:39:59.728Z,-1.23
2023-02-19T10:40:59.715Z,-1.21
2023-02-19T10:41:59.722Z,-1.20
2023-02-19T10:42:59.706Z,-1.21
2023-02-19T10:43:59.710Z,-1.20
2023-02-19T10:44:59.715Z,-1.20
2023-02-19T10:46:00.490Z,-1.17
2023-02-19T10:46:59.678Z,-1.10
2023-02-19T10:47:59.652Z,-1.12
2023-02-19T10:49:00.400Z,-1.15
2023-02-19T10:50:00.813Z,-1.10
2023-02-19T10:50:59.647Z,-1.07
2023-02-19T10:52:00.496Z,-1.05
2023-02-19T10:52:59.651Z,-1.09
2023-02-19T10:53:59.646Z,-1.06
2023-02-19T10:54:59.667Z,-1.09
2023-02-19T10:55:59.564Z,-1.12
2023-02-19T10:56:59.562Z,-1.12
2023-02-19T10:58:00.500Z,-1.07
2023-02-19T10:58:59.537Z,-1.03
2023-02-19T10:59:59.592Z,-1.02
2023-02-19T11:00:59.532Z,-1.00
2023-02-19T11:01:59.518Z,-1.00
2023-02-19T11:03:00.319Z,-1.05
2023-02-19T11:03:59.548Z,-1.05
2023-02-19T11:04:59.546Z,-1.03
2023-02-19T11:05:59.552Z,-0.99
2023-02-19T11:06:59.447Z,-0.99
2023-02-19T11:07:59.440Z,-1.00
2023-02-19T11:08:59.420Z,-0.99
2023-02-19T11:09:59.456Z,-0.97
2023-02-19T11:10:59.388Z,-0.95
2023-02-19T11:12:01.922Z,-0.95
2023-02-19T11:12:59.375Z,-1.00
2023-02-19T11:13:59.367Z,-0.99
2023-02-19T11:14:59.357Z,-1.00
2023-02-19T11:15:59.371Z,-1.03
2023-02-19T11:16:59.331Z,-1.03
2023-02-19T11:17:59.313Z,-1.05
2023-02-19T11:19:00.276Z,-1.07
2023-02-19T11:19:59.298Z,-1.09
2023-02-19T11:20:59.301Z,-1.09
2023-02-19T11:21:59.316Z,-1.10
2023-02-19T11:22:59.337Z,-1.07
2023-02-19T11:23:59.243Z,-1.05
2023-02-19T11:24:59.578Z,-1.07
2023-02-19T11:25:59.258Z,-1.06
2023-02-19T11:26:59.224Z,-1.03
2023-02-19T11:27:59.212Z,-1.03
2023-02-19T11:28:59.211Z,-1.02
2023-02-19T11:29:59.249Z,-0.95
2023-02-19T11:30:59.249Z,-0.92
2023-02-19T11:31:59.346Z,-0.94
2023-02-19T11:32:59.173Z,-0.94
2023-02-19T11:33:59.147Z,-0.99
2023-02-19T11:34:59.135Z,-1.00
2023-02-19T11:35:59.129Z,-0.95
2023-02-19T11:36:59.142Z,-0.94
2023-02-19T11:37:59.166Z,-0.95
2023-02-19T11:38:59.099Z,-0.91
2023-02-19T11:39:59.084Z,-0.89
2023-02-19T11:40:59.157Z,-0.94
2023-02-19T11:41:59.142Z,-0.99
2023-02-19T11:42:59.040Z,-0.97
2023-02-19T11:43:59.034Z,-0.95
2023-02-19T11:44:59.024Z,-0.91
2023-02-19T11:45:59.091Z,-0.89
2023-02-19T11:46:59.045Z,-0.91
2023-02-19T11:47:59.015Z,-0.92
2023-02-19T11:48:58.998Z,-0.95
2023-02-19T11:49:59.025Z,-0.95
2023-02-19T11:50:59.040Z,-0.94
2023-02-19T11:51:58.964Z,-0.89
2023-02-19T11:52:58.963Z,-0.87
2023-02-19T11:53:58.926Z,-0.91
2023-02-19T11:54:58.920Z,-0.89
2023-02-19T11:55:58.916Z,-0.89
2023-02-19T11:56:58.915Z,-0.87
2023-02-19T11:57:58.904Z,-0.91
2023-02-19T11:59:00.660Z,-0.91
2023-02-19T11:59:58.866Z,-0.94
2023-02-19T12:00:58.854Z,-0.94
2023-02-19T12:01:58.956Z,-0.95
2023-02-19T12:02:58.919Z,-0.94
2023-02-19T12:04:00.475Z,-0.92
2023-02-19T12:04:58.819Z,-0.89
2023-02-19T12:05:58.844Z,-0.92
2023-02-19T12:06:58.846Z,-0.92
2023-02-19T12:07:58.776Z,-0.89
2023-02-19T12:08:58.756Z,-0.86
2023-02-19T12:09:58.771Z,-0.86
2023-02-19T12:10:58.745Z,-0.84
2023-02-19T12:11:58.731Z,-0.83
2023-02-19T12:12:58.708Z,-0.80
2023-02-19T12:13:58.709Z,-0.80
2023-02-19T12:14:58.728Z,-0.81
2023-02-19T12:15:58.701Z,-0.91
2023-02-19T12:16:58.668Z,-0.92
2023-02-19T12:17:58.661Z,-0.94
2023-02-19T12:18:58.661Z,-0.94
2023-02-19T12:19:58.698Z,-0.97
2023-02-19T12:20:58.628Z,-0.95
2023-02-19T12:21:58.620Z,-0.89
2023-02-19T12:22:58.611Z,-0.89
2023-02-19T12:23:58.578Z,-0.92
2023-02-19T12:24:58.613Z,-0.92
2023-02-19T12:25:58.589Z,-0.89
2023-02-19T12:26:58.564Z,-0.86
2023-02-19T12:27:58.546Z,-0.87
2023-02-19T12:28:58.669Z,-0.87
2023-02-19T12:29:58.548Z,-0.89
2023-02-19T12:30:58.604Z,-0.91
2023-02-19T12:31:58.526Z,-0.95
2023-02-19T12:32:58.518Z,-0.95
2023-02-19T12:33:58.485Z,-0.92
2023-02-19T12:34:58.474Z,-0.89
2023-02-19T12:35:58.489Z,-0.89
2023-02-19T12:36:58.448Z,-0.86
2023-02-19T12:37:58.448Z,-0.87
2023-02-19T12:38:58.437Z,-0.86
2023-02-19T12:39:58.413Z,-0.86
2023-02-19T12:40:58.417Z,-0.84
2023-02-19T12:41:58.388Z,-0.87
2023-02-19T12:42:58.390Z,-0.87
2023-02-19T12:43:58.387Z,-0.87
2023-02-19T12:44:58.483Z,-0.87
2023-02-19T12:45:58.449Z,-0.84
2023-02-19T12:46:58.354Z,-0.87
2023-02-19T12:47:58.335Z,-0.84
2023-02-19T12:48:58.494Z,-0.89
2023-02-19T12:49:58.302Z,-0.87
2023-02-19T12:50:58.323Z,-0.92
2023-02-19T12:51:58.310Z,-0.97
2023-02-19T12:52:58.260Z,-0.99
2023-02-19T12:53:58.284Z,-1.00